sensor_id;sensor_type;location;lat;lon;timestamp;temperature;humidity
24560;DHT22;12727;49.934;8.656;2022-08-03T00:01:22;17.80;86.70
24560;DHT22;12727;49.934;8.656;2022-08-03T00:03:48;17.70;87.10
24560;DHT22;12727;49.934;8.656;2022-08-03T00:06:13;17.80;87.40
24560;DHT22;12727;49.934;8.656;2022-08-03T00:08:39;17.90;87.00
24560;DHT22;12727;49.934;8.656;2022-08-03T00:11:05;18.00;86.80
24560;DHT22;12727;49.934;8.656;2022-08-03T00:13:31;18.00;87.60
24560;DHT22;12727;49.934;8.656;2022-08-03T00:15:57;18.10;88.40
24560;DHT22;12727;49.934;8.656;2022-08-03T00:18:23;18.10;89.10
24560;DHT22;12727;49.934;8.656;2022-08-03T00:20:48;18.10;88.40
24560;DHT22;12727;49.934;8.656;2022-08-03T00:23:14;18.00;88.20
24560;DHT22;12727;49.934;8.656;2022-08-03T00:25:40;18.00;87.90
24560;DHT22;12727;49.934;8.656;2022-08-03T00:28:06;18.10;88.30
24560;DHT22;12727;49.934;8.656;2022-08-03T00:30:32;17.90;87.90
24560;DHT22;12727;49.934;8.656;2022-08-03T00:32:58;18.00;88.20
24560;DHT22;12727;49.934;8.656;2022-08-03T00:35:24;17.90;88.00
24560;DHT22;12727;49.934;8.656;2022-08-03T00:37:50;17.90;87.90
24560;DHT22;12727;49.934;8.656;2022-08-03T00:40:17;17.90;87.90
24560;DHT22;12727;49.934;8.656;2022-08-03T00:43:03;18.00;87.60
24560;DHT22;12727;49.934;8.656;2022-08-03T00:45:34;18.20;88.80
24560;DHT22;12727;49.934;8.656;2022-08-03T00:48:01;18.30;87.30
24560;DHT22;12727;49.934;8.656;2022-08-03T00:50:29;18.30;87.60
24560;DHT22;12727;49.934;8.656;2022-08-03T00:52:57;18.50;87.70
24560;DHT22;12727;49.934;8.656;2022-08-03T00:55:24;18.50;87.10
24560;DHT22;12727;49.934;8.656;2022-08-03T00:57:50;18.50;87.80
24560;DHT22;12727;49.934;8.656;2022-08-03T01:00:21;18.70;87.00
24560;DHT22;12727;49.934;8.656;2022-08-03T01:02:47;18.60;85.80
24560;DHT22;12727;49.934;8.656;2022-08-03T01:05:13;18.50;85.70
24560;DHT22;12727;49.934;8.656;2022-08-03T01:13:37;18.10;86.90
24560;DHT22;12727;49.934;8.656;2022-08-03T01:16:11;18.00;87.30
24560;DHT22;12727;49.934;8.656;2022-08-03T01:18:51;17.90;87.50
24560;DHT22;12727;49.934;8.656;2022-08-03T01:21:39;17.80;87.70
24560;DHT22;12727;49.934;8.656;2022-08-03T01:26:53;17.80;88.80
24560;DHT22;12727;49.934;8.656;2022-08-03T01:29:49;17.70;89.50
24560;DHT22;12727;49.934;8.656;2022-08-03T01:32:20;17.70;90.00
24560;DHT22;12727;49.934;8.656;2022-08-03T01:34:49;17.60;90.10
24560;DHT22;12727;49.934;8.656;2022-08-03T01:37:31;17.60;90.30
24560;DHT22;12727;49.934;8.656;2022-08-03T01:40:01;17.80;90.60
24560;DHT22;12727;49.934;8.656;2022-08-03T01:42:29;17.80;90.30
24560;DHT22;12727;49.934;8.656;2022-08-03T01:44:56;17.70;90.30
24560;DHT22;12727;49.934;8.656;2022-08-03T01:47:23;17.70;90.50
24560;DHT22;12727;49.934;8.656;2022-08-03T01:49:50;17.70;90.60
24560;DHT22;12727;49.934;8.656;2022-08-03T01:52:18;17.60;90.70
24560;DHT22;12727;49.934;8.656;2022-08-03T01:54:47;17.50;90.80
24560;DHT22;12727;49.934;8.656;2022-08-03T01:57:14;17.30;90.90
24560;DHT22;12727;49.934;8.656;2022-08-03T01:59:41;17.30;91.40
24560;DHT22;12727;49.934;8.656;2022-08-03T02:02:11;17.30;90.90
24560;DHT22;12727;49.934;8.656;2022-08-03T02:04:37;17.30;91.00
24560;DHT22;12727;49.934;8.656;2022-08-03T02:07:04;17.30;91.10
24560;DHT22;12727;49.934;8.656;2022-08-03T02:09:30;17.40;91.40
24560;DHT22;12727;49.934;8.656;2022-08-03T02:11:57;17.70;91.50
24560;DHT22;12727;49.934;8.656;2022-08-03T02:14:25;17.90;91.10
24560;DHT22;12727;49.934;8.656;2022-08-03T02:16:53;18.10;90.80
24560;DHT22;12727;49.934;8.656;2022-08-03T02:19:19;17.90;90.70
24560;DHT22;12727;49.934;8.656;2022-08-03T02:21:46;17.90;90.90
24560;DHT22;12727;49.934;8.656;2022-08-03T02:24:13;17.90;90.70
24560;DHT22;12727;49.934;8.656;2022-08-03T02:26:40;17.90;90.70
24560;DHT22;12727;49.934;8.656;2022-08-03T02:29:10;17.80;91.40
24560;DHT22;12727;49.934;8.656;2022-08-03T02:31:38;17.70;91.20
24560;DHT22;12727;49.934;8.656;2022-08-03T02:34:10;17.80;91.30
24560;DHT22;12727;49.934;8.656;2022-08-03T02:36:38;17.80;91.40
24560;DHT22;12727;49.934;8.656;2022-08-03T02:39:06;17.80;91.50
24560;DHT22;12727;49.934;8.656;2022-08-03T02:41:41;17.70;91.50
24560;DHT22;12727;49.934;8.656;2022-08-03T02:44:09;17.70;91.60
24560;DHT22;12727;49.934;8.656;2022-08-03T02:46:37;17.50;92.00
24560;DHT22;12727;49.934;8.656;2022-08-03T02:49:04;17.50;92.30
24560;DHT22;12727;49.934;8.656;2022-08-03T02:51:33;17.30;92.50
24560;DHT22;12727;49.934;8.656;2022-08-03T02:54:03;17.20;92.80
24560;DHT22;12727;49.934;8.656;2022-08-03T02:56:29;17.30;93.00
24560;DHT22;12727;49.934;8.656;2022-08-03T02:58:57;17.30;93.00
24560;DHT22;12727;49.934;8.656;2022-08-03T03:01:24;17.30;93.10
24560;DHT22;12727;49.934;8.656;2022-08-03T03:03:52;17.30;93.30
24560;DHT22;12727;49.934;8.656;2022-08-03T03:06:19;17.30;93.40
24560;DHT22;12727;49.934;8.656;2022-08-03T03:08:46;17.30;93.50
24560;DHT22;12727;49.934;8.656;2022-08-03T03:11:14;17.20;93.80
24560;DHT22;12727;49.934;8.656;2022-08-03T03:13:42;17.20;93.80
24560;DHT22;12727;49.934;8.656;2022-08-03T03:16:09;17.20;93.80
24560;DHT22;12727;49.934;8.656;2022-08-03T03:18:37;17.20;93.50
24560;DHT22;12727;49.934;8.656;2022-08-03T03:21:04;17.10;93.70
24560;DHT22;12727;49.934;8.656;2022-08-03T03:23:35;17.10;93.50
24560;DHT22;12727;49.934;8.656;2022-08-03T03:26:02;16.90;93.70
24560;DHT22;12727;49.934;8.656;2022-08-03T03:28:29;17.00;94.00
24560;DHT22;12727;49.934;8.656;2022-08-03T03:30:56;17.00;94.00
24560;DHT22;12727;49.934;8.656;2022-08-03T03:33:22;17.00;93.80
24560;DHT22;12727;49.934;8.656;2022-08-03T03:35:48;16.80;93.60
24560;DHT22;12727;49.934;8.656;2022-08-03T03:38:14;16.70;94.40
24560;DHT22;12727;49.934;8.656;2022-08-03T03:40:40;16.60;94.80
24560;DHT22;12727;49.934;8.656;2022-08-03T03:43:07;16.70;95.00
24560;DHT22;12727;49.934;8.656;2022-08-03T03:45:34;16.70;95.20
24560;DHT22;12727;49.934;8.656;2022-08-03T03:48:01;16.70;95.30
24560;DHT22;12727;49.934;8.656;2022-08-03T03:50:29;16.60;95.00
24560;DHT22;12727;49.934;8.656;2022-08-03T03:52:55;16.40;95.40
24560;DHT22;12727;49.934;8.656;2022-08-03T03:55:21;16.40;96.00
24560;DHT22;12727;49.934;8.656;2022-08-03T03:57:46;16.60;96.40
24560;DHT22;12727;49.934;8.656;2022-08-03T04:00:13;16.50;96.00
24560;DHT22;12727;49.934;8.656;2022-08-03T04:02:40;16.40;96.20
24560;DHT22;12727;49.934;8.656;2022-08-03T04:05:06;16.30;96.70
24560;DHT22;12727;49.934;8.656;2022-08-03T04:08:15;16.20;96.90
24560;DHT22;12727;49.934;8.656;2022-08-03T04:11:21;16.10;97.30
24560;DHT22;12727;49.934;8.656;2022-08-03T04:14:03;16.10;97.50
24560;DHT22;12727;49.934;8.656;2022-08-03T04:16:34;16.10;97.40
24560;DHT22;12727;49.934;8.656;2022-08-03T04:19:04;16.10;97.70
24560;DHT22;12727;49.934;8.656;2022-08-03T04:21:32;16.40;97.90
24560;DHT22;12727;49.934;8.656;2022-08-03T04:24:03;16.70;97.10
24560;DHT22;12727;49.934;8.656;2022-08-03T04:26:32;16.40;96.70
24560;DHT22;12727;49.934;8.656;2022-08-03T04:29:00;16.30;97.30
24560;DHT22;12727;49.934;8.656;2022-08-03T04:31:28;16.50;97.50
24560;DHT22;12727;49.934;8.656;2022-08-03T04:33:54;16.70;97.10
24560;DHT22;12727;49.934;8.656;2022-08-03T04:36:21;16.60;96.60
24560;DHT22;12727;49.934;8.656;2022-08-03T04:39:10;16.50;96.70
24560;DHT22;12727;49.934;8.656;2022-08-03T04:41:38;16.40;97.10
24560;DHT22;12727;49.934;8.656;2022-08-03T04:44:05;16.40;97.30
24560;DHT22;12727;49.934;8.656;2022-08-03T04:46:35;16.40;97.30
24560;DHT22;12727;49.934;8.656;2022-08-03T04:49:01;16.40;97.40
24560;DHT22;12727;49.934;8.656;2022-08-03T04:51:28;16.50;97.70
24560;DHT22;12727;49.934;8.656;2022-08-03T04:53:53;16.40;97.80
24560;DHT22;12727;49.934;8.656;2022-08-03T04:56:19;16.60;97.90
24560;DHT22;12727;49.934;8.656;2022-08-03T04:58:45;16.80;97.30
24560;DHT22;12727;49.934;8.656;2022-08-03T05:01:10;16.90;97.00
24560;DHT22;12727;49.934;8.656;2022-08-03T05:03:36;16.90;96.90
24560;DHT22;12727;49.934;8.656;2022-08-03T05:06:02;17.00;96.70
24560;DHT22;12727;49.934;8.656;2022-08-03T05:08:28;17.10;96.90
24560;DHT22;12727;49.934;8.656;2022-08-03T05:10:54;17.40;97.10
24560;DHT22;12727;49.934;8.656;2022-08-03T05:13:20;17.60;96.70
24560;DHT22;12727;49.934;8.656;2022-08-03T05:15:46;17.70;96.40
24560;DHT22;12727;49.934;8.656;2022-08-03T05:18:11;17.70;95.80
24560;DHT22;12727;49.934;8.656;2022-08-03T05:20:37;17.80;96.00
24560;DHT22;12727;49.934;8.656;2022-08-03T05:23:03;18.00;95.70
24560;DHT22;12727;49.934;8.656;2022-08-03T05:25:29;18.10;95.40
24560;DHT22;12727;49.934;8.656;2022-08-03T05:27:54;18.10;95.40
24560;DHT22;12727;49.934;8.656;2022-08-03T05:30:20;18.20;95.30
24560;DHT22;12727;49.934;8.656;2022-08-03T05:32:46;18.30;95.10
24560;DHT22;12727;49.934;8.656;2022-08-03T05:35:12;18.30;95.10
24560;DHT22;12727;49.934;8.656;2022-08-03T05:37:37;18.60;94.80
24560;DHT22;12727;49.934;8.656;2022-08-03T05:40:04;18.60;94.70
24560;DHT22;12727;49.934;8.656;2022-08-03T05:42:29;18.60;94.80
24560;DHT22;12727;49.934;8.656;2022-08-03T05:44:55;18.70;94.60
24560;DHT22;12727;49.934;8.656;2022-08-03T05:47:21;18.70;94.80
24560;DHT22;12727;49.934;8.656;2022-08-03T05:49:46;18.90;94.50
24560;DHT22;12727;49.934;8.656;2022-08-03T05:52:12;19.00;94.40
24560;DHT22;12727;49.934;8.656;2022-08-03T05:54:37;19.20;94.30
24560;DHT22;12727;49.934;8.656;2022-08-03T05:57:03;19.50;93.90
24560;DHT22;12727;49.934;8.656;2022-08-03T05:59:28;19.50;94.00
24560;DHT22;12727;49.934;8.656;2022-08-03T06:01:54;19.70;93.40
24560;DHT22;12727;49.934;8.656;2022-08-03T06:04:20;19.80;93.00
24560;DHT22;12727;49.934;8.656;2022-08-03T06:06:45;19.90;93.00
24560;DHT22;12727;49.934;8.656;2022-08-03T06:09:11;20.10;92.80
24560;DHT22;12727;49.934;8.656;2022-08-03T06:11:37;20.10;92.30
24560;DHT22;12727;49.934;8.656;2022-08-03T06:14:04;20.40;92.10
24560;DHT22;12727;49.934;8.656;2022-08-03T06:16:30;20.70;91.50
24560;DHT22;12727;49.934;8.656;2022-08-03T06:18:55;21.10;90.90
24560;DHT22;12727;49.934;8.656;2022-08-03T06:21:21;21.40;90.30
24560;DHT22;12727;49.934;8.656;2022-08-03T06:23:46;21.80;89.30
24560;DHT22;12727;49.934;8.656;2022-08-03T06:26:12;22.20;87.30
24560;DHT22;12727;49.934;8.656;2022-08-03T06:28:38;22.40;85.60
24560;DHT22;12727;49.934;8.656;2022-08-03T06:31:04;22.70;82.90
24560;DHT22;12727;49.934;8.656;2022-08-03T06:33:29;22.90;80.60
24560;DHT22;12727;49.934;8.656;2022-08-03T06:35:55;23.20;80.20
24560;DHT22;12727;49.934;8.656;2022-08-03T06:38:20;23.60;78.70
24560;DHT22;12727;49.934;8.656;2022-08-03T06:40:46;23.90;76.40
24560;DHT22;12727;49.934;8.656;2022-08-03T06:43:12;24.20;75.10
24560;DHT22;12727;49.934;8.656;2022-08-03T06:45:40;24.70;73.50
24560;DHT22;12727;49.934;8.656;2022-08-03T06:48:10;24.80;70.80
24560;DHT22;12727;49.934;8.656;2022-08-03T06:50:38;25.10;70.50
24560;DHT22;12727;49.934;8.656;2022-08-03T06:53:04;25.30;69.80
24560;DHT22;12727;49.934;8.656;2022-08-03T06:55:31;25.60;68.00
24560;DHT22;12727;49.934;8.656;2022-08-03T06:57:56;26.00;66.90
24560;DHT22;12727;49.934;8.656;2022-08-03T07:00:22;26.30;65.90
24560;DHT22;12727;49.934;8.656;2022-08-03T07:02:48;26.40;65.20
24560;DHT22;12727;49.934;8.656;2022-08-03T07:05:14;26.60;64.10
24560;DHT22;12727;49.934;8.656;2022-08-03T07:07:39;26.80;62.40
24560;DHT22;12727;49.934;8.656;2022-08-03T07:10:06;27.00;62.20
24560;DHT22;12727;49.934;8.656;2022-08-03T07:12:33;27.30;60.70
24560;DHT22;12727;49.934;8.656;2022-08-03T07:15:00;27.60;59.50
24560;DHT22;12727;49.934;8.656;2022-08-03T07:17:26;27.60;58.10
24560;DHT22;12727;49.934;8.656;2022-08-03T07:19:52;27.70;58.00
24560;DHT22;12727;49.934;8.656;2022-08-03T07:22:17;27.90;57.40
24560;DHT22;12727;49.934;8.656;2022-08-03T07:24:43;28.00;56.70
24560;DHT22;12727;49.934;8.656;2022-08-03T07:27:10;28.10;56.80
24560;DHT22;12727;49.934;8.656;2022-08-03T07:29:35;28.50;55.70
24560;DHT22;12727;49.934;8.656;2022-08-03T07:32:02;28.60;55.00
24560;DHT22;12727;49.934;8.656;2022-08-03T07:34:29;28.80;54.20
24560;DHT22;12727;49.934;8.656;2022-08-03T07:36:55;29.20;53.70
24560;DHT22;12727;49.934;8.656;2022-08-03T07:39:20;29.70;52.80
24560;DHT22;12727;49.934;8.656;2022-08-03T07:41:46;30.00;51.80
24560;DHT22;12727;49.934;8.656;2022-08-03T07:44:14;30.20;51.00
24560;DHT22;12727;49.934;8.656;2022-08-03T07:46:40;30.00;50.60
24560;DHT22;12727;49.934;8.656;2022-08-03T07:49:05;30.20;49.90
24560;DHT22;12727;49.934;8.656;2022-08-03T07:51:31;30.40;49.40
24560;DHT22;12727;49.934;8.656;2022-08-03T07:53:56;30.50;49.20
24560;DHT22;12727;49.934;8.656;2022-08-03T07:56:23;30.70;48.70
24560;DHT22;12727;49.934;8.656;2022-08-03T07:58:52;30.80;48.10
24560;DHT22;12727;49.934;8.656;2022-08-03T08:01:18;30.80;47.50
24560;DHT22;12727;49.934;8.656;2022-08-03T08:03:45;30.80;47.00
24560;DHT22;12727;49.934;8.656;2022-08-03T08:06:10;31.40;46.90
24560;DHT22;12727;49.934;8.656;2022-08-03T08:08:37;31.50;46.00
24560;DHT22;12727;49.934;8.656;2022-08-03T08:11:04;31.40;45.90
24560;DHT22;12727;49.934;8.656;2022-08-03T08:13:30;31.50;46.00
24560;DHT22;12727;49.934;8.656;2022-08-03T08:15:55;31.50;45.80
24560;DHT22;12727;49.934;8.656;2022-08-03T08:18:21;31.70;45.50
24560;DHT22;12727;49.934;8.656;2022-08-03T08:20:48;32.00;45.60
24560;DHT22;12727;49.934;8.656;2022-08-03T08:23:14;32.40;44.90
24560;DHT22;12727;49.934;8.656;2022-08-03T08:25:39;32.40;44.20
24560;DHT22;12727;49.934;8.656;2022-08-03T08:28:05;32.70;43.90
24560;DHT22;12727;49.934;8.656;2022-08-03T08:30:32;32.60;43.50
24560;DHT22;12727;49.934;8.656;2022-08-03T08:32:58;32.80;43.20
24560;DHT22;12727;49.934;8.656;2022-08-03T08:35:24;33.40;42.30
24560;DHT22;12727;49.934;8.656;2022-08-03T08:37:50;33.60;41.90
24560;DHT22;12727;49.934;8.656;2022-08-03T08:40:16;33.60;41.40
24560;DHT22;12727;49.934;8.656;2022-08-03T08:42:43;33.70;41.00
24560;DHT22;12727;49.934;8.656;2022-08-03T08:45:10;33.60;41.30
24560;DHT22;12727;49.934;8.656;2022-08-03T08:47:44;34.00;40.70
24560;DHT22;12727;49.934;8.656;2022-08-03T08:50:11;34.10;40.00
24560;DHT22;12727;49.934;8.656;2022-08-03T08:52:39;33.90;40.70
24560;DHT22;12727;49.934;8.656;2022-08-03T08:55:08;33.80;40.60
24560;DHT22;12727;49.934;8.656;2022-08-03T08:57:36;33.90;40.80
24560;DHT22;12727;49.934;8.656;2022-08-03T09:00:06;33.80;40.10
24560;DHT22;12727;49.934;8.656;2022-08-03T09:02:34;33.70;40.00
24560;DHT22;12727;49.934;8.656;2022-08-03T09:05:00;33.70;40.10
24560;DHT22;12727;49.934;8.656;2022-08-03T09:07:27;34.10;39.40
24560;DHT22;12727;49.934;8.656;2022-08-03T09:09:52;34.30;38.60
24560;DHT22;12727;49.934;8.656;2022-08-03T09:12:18;34.80;38.10
24560;DHT22;12727;49.934;8.656;2022-08-03T09:14:44;34.80;37.70
24560;DHT22;12727;49.934;8.656;2022-08-03T09:17:10;35.30;37.10
24560;DHT22;12727;49.934;8.656;2022-08-03T09:19:35;35.80;36.40
24560;DHT22;12727;49.934;8.656;2022-08-03T09:24:34;36.10;35.60
24560;DHT22;12727;49.934;8.656;2022-08-03T09:26:59;36.40;35.10
24560;DHT22;12727;49.934;8.656;2022-08-03T09:29:25;36.30;35.00
24560;DHT22;12727;49.934;8.656;2022-08-03T09:32:02;36.50;34.70
24560;DHT22;12727;49.934;8.656;2022-08-03T09:34:28;36.50;34.10
24560;DHT22;12727;49.934;8.656;2022-08-03T09:36:54;36.30;34.80
24560;DHT22;12727;49.934;8.656;2022-08-03T09:39:23;36.40;34.60
24560;DHT22;12727;49.934;8.656;2022-08-03T09:42:07;36.30;34.30
24560;DHT22;12727;49.934;8.656;2022-08-03T09:44:35;36.40;33.40
24560;DHT22;12727;49.934;8.656;2022-08-03T09:47:01;36.40;34.10
24560;DHT22;12727;49.934;8.656;2022-08-03T09:49:26;36.50;33.90
24560;DHT22;12727;49.934;8.656;2022-08-03T09:51:52;36.60;33.80
24560;DHT22;12727;49.934;8.656;2022-08-03T09:54:29;36.70;33.60
24560;DHT22;12727;49.934;8.656;2022-08-03T09:56:56;37.20;32.90
24560;DHT22;12727;49.934;8.656;2022-08-03T09:59:24;37.60;32.60
24560;DHT22;12727;49.934;8.656;2022-08-03T10:01:50;37.40;32.10
24560;DHT22;12727;49.934;8.656;2022-08-03T10:04:16;36.70;32.90
24560;DHT22;12727;49.934;8.656;2022-08-03T10:06:45;36.30;33.10
24560;DHT22;12727;49.934;8.656;2022-08-03T10:09:26;36.60;33.30
24560;DHT22;12727;49.934;8.656;2022-08-03T10:11:51;36.90;33.10
24560;DHT22;12727;49.934;8.656;2022-08-03T10:14:17;37.10;32.10
24560;DHT22;12727;49.934;8.656;2022-08-03T10:16:45;36.80;32.20
24560;DHT22;12727;49.934;8.656;2022-08-03T10:19:11;36.30;33.10
24560;DHT22;12727;49.934;8.656;2022-08-03T10:21:41;36.40;32.90
24560;DHT22;12727;49.934;8.656;2022-08-03T10:24:10;36.20;33.10
24560;DHT22;12727;49.934;8.656;2022-08-03T10:26:40;36.10;33.30
24560;DHT22;12727;49.934;8.656;2022-08-03T10:29:11;35.70;34.10
24560;DHT22;12727;49.934;8.656;2022-08-03T10:31:40;35.50;34.90
24560;DHT22;12727;49.934;8.656;2022-08-03T10:34:26;35.90;35.00
24560;DHT22;12727;49.934;8.656;2022-08-03T10:36:56;36.40;33.50
24560;DHT22;12727;49.934;8.656;2022-08-03T10:39:27;36.40;33.90
24560;DHT22;12727;49.934;8.656;2022-08-03T10:41:53;36.40;33.70
24560;DHT22;12727;49.934;8.656;2022-08-03T10:44:23;36.70;33.70
24560;DHT22;12727;49.934;8.656;2022-08-03T10:46:50;36.90;33.50
24560;DHT22;12727;49.934;8.656;2022-08-03T10:49:19;36.80;32.70
24560;DHT22;12727;49.934;8.656;2022-08-03T10:51:46;36.40;33.40
24560;DHT22;12727;49.934;8.656;2022-08-03T10:57:42;36.70;33.20
24560;DHT22;12727;49.934;8.656;2022-08-03T11:00:08;36.70;32.90
24560;DHT22;12727;49.934;8.656;2022-08-03T11:03:00;37.10;32.00
24560;DHT22;12727;49.934;8.656;2022-08-03T11:05:30;36.90;32.20
24560;DHT22;12727;49.934;8.656;2022-08-03T11:08:19;36.40;32.80
24560;DHT22;12727;49.934;8.656;2022-08-03T11:10:46;36.10;33.10
24560;DHT22;12727;49.934;8.656;2022-08-03T11:13:15;36.30;33.00
24560;DHT22;12727;49.934;8.656;2022-08-03T11:15:43;36.40;32.80
24560;DHT22;12727;49.934;8.656;2022-08-03T11:18:11;36.60;32.50
24560;DHT22;12727;49.934;8.656;2022-08-03T11:20:54;36.70;32.50
24560;DHT22;12727;49.934;8.656;2022-08-03T11:28:36;36.50;33.10
24560;DHT22;12727;49.934;8.656;2022-08-03T11:34:05;35.40;33.60
24560;DHT22;12727;49.934;8.656;2022-08-03T11:39:16;34.20;35.90
24560;DHT22;12727;49.934;8.656;2022-08-03T11:41:42;33.90;36.40
24560;DHT22;12727;49.934;8.656;2022-08-03T11:44:08;33.90;36.40
24560;DHT22;12727;49.934;8.656;2022-08-03T11:46:37;33.50;36.70
24560;DHT22;12727;49.934;8.656;2022-08-03T11:49:04;33.50;37.40
24560;DHT22;12727;49.934;8.656;2022-08-03T11:51:31;33.60;37.10
24560;DHT22;12727;49.934;8.656;2022-08-03T11:53:59;33.60;37.20
24560;DHT22;12727;49.934;8.656;2022-08-03T11:56:26;33.80;37.00
24560;DHT22;12727;49.934;8.656;2022-08-03T11:58:56;33.60;37.10
24560;DHT22;12727;49.934;8.656;2022-08-03T12:01:23;33.40;37.10
24560;DHT22;12727;49.934;8.656;2022-08-03T12:03:50;33.20;37.20
24560;DHT22;12727;49.934;8.656;2022-08-03T12:06:17;32.90;37.80
24560;DHT22;12727;49.934;8.656;2022-08-03T12:08:44;32.90;38.50
24560;DHT22;12727;49.934;8.656;2022-08-03T12:11:12;33.20;38.10
24560;DHT22;12727;49.934;8.656;2022-08-03T12:13:43;33.20;38.20
24560;DHT22;12727;49.934;8.656;2022-08-03T12:16:14;33.20;38.20
24560;DHT22;12727;49.934;8.656;2022-08-03T12:18:41;33.10;38.00
24560;DHT22;12727;49.934;8.656;2022-08-03T12:21:10;33.00;38.80
24560;DHT22;12727;49.934;8.656;2022-08-03T12:23:37;33.20;38.40
24560;DHT22;12727;49.934;8.656;2022-08-03T12:26:08;33.20;38.30
24560;DHT22;12727;49.934;8.656;2022-08-03T12:28:34;33.40;38.20
24560;DHT22;12727;49.934;8.656;2022-08-03T12:31:05;33.20;38.20
24560;DHT22;12727;49.934;8.656;2022-08-03T12:33:32;33.00;38.40
24560;DHT22;12727;49.934;8.656;2022-08-03T12:36:18;33.30;38.30
24560;DHT22;12727;49.934;8.656;2022-08-03T12:38:54;33.00;38.20
24560;DHT22;12727;49.934;8.656;2022-08-03T12:41:29;32.80;39.00
24560;DHT22;12727;49.934;8.656;2022-08-03T12:43:55;32.60;39.30
24560;DHT22;12727;49.934;8.656;2022-08-03T12:46:21;32.60;39.20
24560;DHT22;12727;49.934;8.656;2022-08-03T12:49:01;32.70;39.40
24560;DHT22;12727;49.934;8.656;2022-08-03T12:51:30;32.80;39.50
24560;DHT22;12727;49.934;8.656;2022-08-03T12:53:57;33.00;38.70
24560;DHT22;12727;49.934;8.656;2022-08-03T12:56:23;32.80;39.00
24560;DHT22;12727;49.934;8.656;2022-08-03T12:58:49;32.80;39.40
24560;DHT22;12727;49.934;8.656;2022-08-03T13:01:15;33.00;39.30
24560;DHT22;12727;49.934;8.656;2022-08-03T13:03:43;33.40;38.80
24560;DHT22;12727;49.934;8.656;2022-08-03T13:08:38;33.60;38.20
24560;DHT22;12727;49.934;8.656;2022-08-03T13:11:24;33.70;38.30
24560;DHT22;12727;49.934;8.656;2022-08-03T13:13:51;33.70;38.00
24560;DHT22;12727;49.934;8.656;2022-08-03T13:16:17;33.70;38.30
24560;DHT22;12727;49.934;8.656;2022-08-03T13:18:43;33.70;38.20
24560;DHT22;12727;49.934;8.656;2022-08-03T13:21:12;33.60;38.20
24560;DHT22;12727;49.934;8.656;2022-08-03T13:23:38;33.50;38.30
24560;DHT22;12727;49.934;8.656;2022-08-03T13:26:04;33.60;38.40
24560;DHT22;12727;49.934;8.656;2022-08-03T13:28:29;33.50;38.60
24560;DHT22;12727;49.934;8.656;2022-08-03T13:30:55;33.60;38.50
24560;DHT22;12727;49.934;8.656;2022-08-03T13:33:21;33.70;38.20
24560;DHT22;12727;49.934;8.656;2022-08-03T13:35:46;33.50;38.20
24560;DHT22;12727;49.934;8.656;2022-08-03T13:38:12;33.40;38.50
24560;DHT22;12727;49.934;8.656;2022-08-03T13:40:37;33.30;38.40
24560;DHT22;12727;49.934;8.656;2022-08-03T13:43:03;33.40;38.60
24560;DHT22;12727;49.934;8.656;2022-08-03T13:45:28;33.50;38.40
24560;DHT22;12727;49.934;8.656;2022-08-03T13:47:54;33.30;38.50
24560;DHT22;12727;49.934;8.656;2022-08-03T13:50:20;33.40;38.60
24560;DHT22;12727;49.934;8.656;2022-08-03T13:52:45;33.60;38.40
24560;DHT22;12727;49.934;8.656;2022-08-03T13:55:11;33.80;38.10
24560;DHT22;12727;49.934;8.656;2022-08-03T13:57:37;34.10;37.70
24560;DHT22;12727;49.934;8.656;2022-08-03T14:00:04;34.00;37.70
24560;DHT22;12727;49.934;8.656;2022-08-03T14:02:30;34.00;37.70
24560;DHT22;12727;49.934;8.656;2022-08-03T14:04:55;33.90;37.70
24560;DHT22;12727;49.934;8.656;2022-08-03T14:07:21;33.60;38.00
24560;DHT22;12727;49.934;8.656;2022-08-03T14:09:46;33.50;37.80
24560;DHT22;12727;49.934;8.656;2022-08-03T14:12:12;33.40;38.10
24560;DHT22;12727;49.934;8.656;2022-08-03T14:14:38;33.40;37.60
24560;DHT22;12727;49.934;8.656;2022-08-03T14:17:03;33.20;37.80
24560;DHT22;12727;49.934;8.656;2022-08-03T14:19:29;33.10;38.10
24560;DHT22;12727;49.934;8.656;2022-08-03T14:21:54;33.10;38.30
24560;DHT22;12727;49.934;8.656;2022-08-03T14:24:20;33.30;38.40
24560;DHT22;12727;49.934;8.656;2022-08-03T14:26:45;33.40;38.10
24560;DHT22;12727;49.934;8.656;2022-08-03T14:29:11;33.20;38.00
24560;DHT22;12727;49.934;8.656;2022-08-03T14:31:37;33.00;38.00
24560;DHT22;12727;49.934;8.656;2022-08-03T14:34:03;32.80;38.50
24560;DHT22;12727;49.934;8.656;2022-08-03T14:36:28;32.90;38.30
24560;DHT22;12727;49.934;8.656;2022-08-03T14:38:54;33.10;38.50
24560;DHT22;12727;49.934;8.656;2022-08-03T14:41:20;33.00;38.30
24560;DHT22;12727;49.934;8.656;2022-08-03T14:43:46;32.90;38.40
24560;DHT22;12727;49.934;8.656;2022-08-03T14:46:12;32.90;38.40
24560;DHT22;12727;49.934;8.656;2022-08-03T14:48:37;32.80;38.50
24560;DHT22;12727;49.934;8.656;2022-08-03T14:51:03;32.90;38.50
24560;DHT22;12727;49.934;8.656;2022-08-03T14:53:29;33.20;38.40
24560;DHT22;12727;49.934;8.656;2022-08-03T14:55:55;33.50;38.10
24560;DHT22;12727;49.934;8.656;2022-08-03T14:58:22;33.40;37.70
24560;DHT22;12727;49.934;8.656;2022-08-03T15:00:49;33.20;38.10
24560;DHT22;12727;49.934;8.656;2022-08-03T15:03:15;33.30;38.10
24560;DHT22;12727;49.934;8.656;2022-08-03T15:05:41;33.40;37.70
24560;DHT22;12727;49.934;8.656;2022-08-03T15:08:06;33.40;37.70
24560;DHT22;12727;49.934;8.656;2022-08-03T15:10:32;33.20;37.80
24560;DHT22;12727;49.934;8.656;2022-08-03T15:12:57;33.30;37.90
24560;DHT22;12727;49.934;8.656;2022-08-03T15:15:23;33.30;37.80
24560;DHT22;12727;49.934;8.656;2022-08-03T15:17:49;33.20;38.00
24560;DHT22;12727;49.934;8.656;2022-08-03T15:20:14;33.30;37.90
24560;DHT22;12727;49.934;8.656;2022-08-03T15:22:40;33.40;37.90
24560;DHT22;12727;49.934;8.656;2022-08-03T15:25:06;33.50;37.80
24560;DHT22;12727;49.934;8.656;2022-08-03T15:27:31;33.70;37.50
24560;DHT22;12727;49.934;8.656;2022-08-03T15:29:57;33.70;37.70
24560;DHT22;12727;49.934;8.656;2022-08-03T15:32:23;33.90;37.50
24560;DHT22;12727;49.934;8.656;2022-08-03T15:34:48;33.80;37.20
24560;DHT22;12727;49.934;8.656;2022-08-03T15:37:15;33.70;37.80
24560;DHT22;12727;49.934;8.656;2022-08-03T15:39:41;33.70;37.60
24560;DHT22;12727;49.934;8.656;2022-08-03T15:42:06;33.70;37.40
24560;DHT22;12727;49.934;8.656;2022-08-03T15:44:32;33.60;37.30
24560;DHT22;12727;49.934;8.656;2022-08-03T15:46:57;33.50;37.50
24560;DHT22;12727;49.934;8.656;2022-08-03T15:49:23;33.40;37.50
24560;DHT22;12727;49.934;8.656;2022-08-03T15:51:48;33.30;37.90
24560;DHT22;12727;49.934;8.656;2022-08-03T15:54:14;33.20;37.80
24560;DHT22;12727;49.934;8.656;2022-08-03T15:56:39;33.20;38.00
24560;DHT22;12727;49.934;8.656;2022-08-03T15:59:10;33.30;38.10
24560;DHT22;12727;49.934;8.656;2022-08-03T16:01:35;33.30;37.90